< < Back
Terminal Aerodrome Forecast


Current Version              Previous Versions:   1  2  3  4  5  6  7  8  9  

Terminal Aerodrome Forecast

319
FTUS42 KGSP 171100
TAFAND
TAF
KAND 171135Z 1712/1812 05009KT P6SM BKN250
     FM171500 06013G23KT P6SM BKN250
     FM172200 08008KT P6SM BKN250
     FM180000 06004KT P6SM SCT040 BKN250
     FM180400 07008KT P6SM BKN040=



Latest METAR

642
SAUS70 KWBC 180300 RRD
MTRAND
METAR KAND 180256Z AUTO 08005KT 10SM BKN065 13/00 A3040 RMK AO2 SLP291
T01280000 51013


USA.gov is the U.S. government's official web portal to all federal, state and local government web resources and services.